createdAt,value
2018-12-21T00:00:39.717Z,10.63
2018-12-21T00:03:07.132Z,10.53
2018-12-21T00:05:34.555Z,10.30
2018-12-21T00:08:01.959Z,10.37
2018-12-21T00:10:29.384Z,10.57
2018-12-21T00:12:56.784Z,10.80
2018-12-21T00:15:24.216Z,11.10
2018-12-21T00:17:51.630Z,10.93
2018-12-21T00:20:19.061Z,10.93
2018-12-21T00:22:46.495Z,11.13
2018-12-21T00:25:13.922Z,10.83
2018-12-21T00:27:41.332Z,10.53
2018-12-21T00:30:10.384Z,10.70
2018-12-21T00:32:43.407Z,10.10
2018-12-21T00:35:16.473Z,11.00
2018-12-21T00:37:49.407Z,10.80
2018-12-21T00:40:22.526Z,11.30
2018-12-21T00:42:54.859Z,11.13
2018-12-21T00:45:24.262Z,11.13
2018-12-21T00:47:51.754Z,10.83
2018-12-21T00:50:19.173Z,10.70
2018-12-21T00:52:46.630Z,10.73
2018-12-21T00:55:14.041Z,10.37
2018-12-21T00:57:41.463Z,11.30
2018-12-21T01:00:12.831Z,11.80
2018-12-21T01:02:40.239Z,11.63
2018-12-21T01:05:07.683Z,12.07
2018-12-21T01:07:35.126Z,12.57
2018-12-21T01:10:02.521Z,13.27
2018-12-21T01:12:30.028Z,11.07
2018-12-21T01:14:57.450Z,12.73
2018-12-21T01:17:24.955Z,11.80
2018-12-21T01:19:52.373Z,11.60
2018-12-21T01:22:19.796Z,10.90
2018-12-21T01:24:47.203Z,11.40
2018-12-21T01:27:14.692Z,11.60
2018-12-21T01:29:42.295Z,11.40
2018-12-21T01:32:09.720Z,11.03
2018-12-21T01:34:37.136Z,10.33
2018-12-21T01:37:04.562Z,10.87
2018-12-21T01:39:32.006Z,10.20
2018-12-21T01:41:59.464Z,11.40
2018-12-21T01:44:26.987Z,10.57
2018-12-21T01:46:54.416Z,10.43
2018-12-21T01:49:21.819Z,10.53
2018-12-21T01:51:49.242Z,10.93
2018-12-21T01:54:16.735Z,10.17
2018-12-21T01:56:44.183Z,10.53
2018-12-21T01:59:11.579Z,12.27
2018-12-21T02:01:39.009Z,11.43
2018-12-21T02:04:06.495Z,10.67
2018-12-21T02:06:33.911Z,10.23
2018-12-21T02:09:01.396Z,10.37
2018-12-21T02:11:28.804Z,10.83
2018-12-21T02:13:56.207Z,11.07
2018-12-21T02:16:23.652Z,10.77
2018-12-21T02:18:51.051Z,11.33
2018-12-21T02:21:18.482Z,10.47
2018-12-21T02:23:45.900Z,10.30
2018-12-21T02:26:13.296Z,11.10
2018-12-21T02:28:40.713Z,10.03
2018-12-21T02:31:08.128Z,11.13
2018-12-21T02:33:35.532Z,10.60
2018-12-21T02:36:02.948Z,11.03
2018-12-21T02:38:30.483Z,10.30
2018-12-21T02:40:58.062Z,11.07
2018-12-21T02:43:25.535Z,10.70
2018-12-21T02:45:52.968Z,10.57
2018-12-21T02:48:20.399Z,10.60
2018-12-21T02:50:47.805Z,10.57
2018-12-21T02:53:15.227Z,10.17
2018-12-21T02:55:42.641Z,10.20
2018-12-21T02:58:10.076Z,9.77
2018-12-21T03:00:37.493Z,10.20
2018-12-21T03:03:04.922Z,10.83
2018-12-21T03:05:32.325Z,10.53
2018-12-21T03:07:59.731Z,11.10
2018-12-21T03:10:27.162Z,10.40
2018-12-21T03:12:54.592Z,10.50
2018-12-21T03:15:22.032Z,10.90
2018-12-21T03:17:49.509Z,9.77
2018-12-21T03:20:16.942Z,10.40
2018-12-21T03:22:44.360Z,10.17
2018-12-21T03:25:11.794Z,10.77
2018-12-21T03:27:39.224Z,9.60
2018-12-21T03:30:07.487Z,10.03
2018-12-21T03:32:35.051Z,9.97
2018-12-21T03:35:02.529Z,10.80
2018-12-21T03:37:30.020Z,9.70
2018-12-21T03:39:57.441Z,10.67
2018-12-21T03:42:24.896Z,9.97
2018-12-21T03:44:52.359Z,10.43
2018-12-21T03:47:19.795Z,11.37
2018-12-21T03:49:47.218Z,11.27
2018-12-21T03:52:24.003Z,11.70
2018-12-21T03:54:44.045Z,11.00
2018-12-21T03:57:11.486Z,10.10
2018-12-21T03:59:40.120Z,11.07
2018-12-21T04:02:07.536Z,10.53
2018-12-21T04:04:34.973Z,11.37
2018-12-21T04:07:02.381Z,10.33
2018-12-21T04:09:29.814Z,10.57
2018-12-21T04:11:57.341Z,10.80
2018-12-21T04:14:24.812Z,11.10
2018-12-21T04:16:52.225Z,10.83
2018-12-21T04:19:19.646Z,11.13
2018-12-21T04:21:47.073Z,11.13
2018-12-21T04:24:14.505Z,11.30
2018-12-21T04:26:41.914Z,11.87
2018-12-21T04:29:09.345Z,11.83
2018-12-21T04:31:36.761Z,11.80
2018-12-21T04:34:04.189Z,12.17
2018-12-21T04:36:31.611Z,13.80
2018-12-21T04:38:59.038Z,12.17
2018-12-21T04:41:26.454Z,11.90
2018-12-21T04:43:53.877Z,13.17
2018-12-21T04:46:21.318Z,12.10
2018-12-21T04:48:48.816Z,12.87
2018-12-21T04:51:16.244Z,12.97
2018-12-21T04:53:43.671Z,12.60
2018-12-21T04:56:11.090Z,12.63
2018-12-21T04:58:38.537Z,11.40
2018-12-21T05:01:05.949Z,12.40
2018-12-21T05:03:33.359Z,12.27
2018-12-21T05:06:00.797Z,11.97
2018-12-21T05:08:28.276Z,11.80
2018-12-21T05:10:55.731Z,12.97
2018-12-21T05:13:23.155Z,14.17
2018-12-21T05:15:50.670Z,15.43
2018-12-21T05:18:18.072Z,17.67
2018-12-21T05:20:45.503Z,19.47
2018-12-21T05:23:12.917Z,24.87
2018-12-21T05:25:40.357Z,24.37
2018-12-21T05:28:26.634Z,26.73
2018-12-21T05:30:54.060Z,29.87
2018-12-21T05:33:21.576Z,26.33
2018-12-21T05:35:49.005Z,30.77
2018-12-21T05:38:16.425Z,29.50
2018-12-21T05:40:43.857Z,29.90
2018-12-21T05:43:11.267Z,28.20
2018-12-21T05:45:38.683Z,30.77
2018-12-21T05:48:06.110Z,32.97
2018-12-21T05:50:33.536Z,41.90
2018-12-21T05:53:01.141Z,50.57
2018-12-21T05:55:28.695Z,84.93
2018-12-21T05:57:56.101Z,30.87
2018-12-21T06:00:23.539Z,37.70
2018-12-21T06:02:50.965Z,32.47
2018-12-21T06:05:18.402Z,31.17
2018-12-21T06:07:45.834Z,36.90
2018-12-21T06:10:13.341Z,33.93
2018-12-21T06:12:40.764Z,37.53
2018-12-21T06:15:08.247Z,39.67
2018-12-21T06:17:35.697Z,34.17
2018-12-21T06:20:04.033Z,34.73
2018-12-21T06:22:31.464Z,34.80
2018-12-21T06:24:58.882Z,34.77
2018-12-21T06:27:26.291Z,37.63
2018-12-21T06:32:52.996Z,31.10
2018-12-21T06:35:20.463Z,34.40
2018-12-21T06:37:48.588Z,34.83
2018-12-21T06:40:16.100Z,39.73
2018-12-21T06:42:43.525Z,36.63
2018-12-21T06:45:10.941Z,36.00
2018-12-21T06:47:44.505Z,35.70
2018-12-21T06:50:11.917Z,36.30
2018-12-21T06:52:39.342Z,35.27
2018-12-21T06:55:06.768Z,36.70
2018-12-21T06:57:34.218Z,37.50
2018-12-21T07:00:01.664Z,37.20
2018-12-21T07:05:37.909Z,36.40
2018-12-21T07:08:18.078Z,37.30
2018-12-21T07:10:45.524Z,35.23
2018-12-21T07:13:12.920Z,38.43
2018-12-21T07:15:40.353Z,36.00
2018-12-21T07:18:08.738Z,35.83
2018-12-21T07:20:36.170Z,39.87
2018-12-21T07:23:03.578Z,40.53
2018-12-21T07:25:35.649Z,38.57
2018-12-21T07:28:04.505Z,38.03
2018-12-21T07:30:37.733Z,41.27
2018-12-21T07:33:08.329Z,40.50
2018-12-21T07:35:38.987Z,37.50
2018-12-21T07:38:09.605Z,38.50
2018-12-21T07:40:43.548Z,39.13
2018-12-21T07:43:17.309Z,37.67
2018-12-21T07:45:48.186Z,36.80
2018-12-21T07:48:21.582Z,39.30
2018-12-21T07:50:55.283Z,39.20
2018-12-21T07:53:25.996Z,43.83
2018-12-21T07:55:56.770Z,42.20
2018-12-21T07:58:27.708Z,40.80
2018-12-21T08:01:01.377Z,42.67
2018-12-21T08:03:35.244Z,42.87
2018-12-21T08:06:09.068Z,46.80
2018-12-21T08:08:42.835Z,47.00
2018-12-21T08:11:16.860Z,45.93
2018-12-21T08:13:50.603Z,40.80
2018-12-21T08:16:21.619Z,64.30
2018-12-21T08:18:55.146Z,58.30
2018-12-21T08:21:29.066Z,48.77
2018-12-21T08:24:13.192Z,93.13
2018-12-21T08:26:40.622Z,46.87
2018-12-21T08:29:11.288Z,55.70
2018-12-21T08:31:44.843Z,62.83
2018-12-21T08:34:18.651Z,59.90
2018-12-21T08:36:49.769Z,80.50
2018-12-21T08:39:30.981Z,61.87
2018-12-21T08:42:05.249Z,59.30
2018-12-21T08:44:46.609Z,62.53
2018-12-21T08:47:22.661Z,63.87
2018-12-21T08:49:59.939Z,57.30
2018-12-21T08:52:33.490Z,68.07
2018-12-21T08:55:07.100Z,60.77
2018-12-21T08:57:37.909Z,77.40
2018-12-21T09:00:11.429Z,68.87
2018-12-21T09:02:40.788Z,98.73
2018-12-21T09:05:08.321Z,134.50
2018-12-21T09:07:37.261Z,96.27
2018-12-21T09:10:07.080Z,88.63
2018-12-21T09:12:34.490Z,81.63
2018-12-21T09:15:01.909Z,79.03
2018-12-21T09:17:29.321Z,77.20
2018-12-21T09:19:56.739Z,85.00
2018-12-21T09:22:24.136Z,84.20
2018-12-21T09:24:51.564Z,99.90
2018-12-21T09:27:18.970Z,77.17
2018-12-21T09:29:46.383Z,75.10
2018-12-21T09:32:13.789Z,84.57
2018-12-21T09:34:41.204Z,89.07
2018-12-21T09:37:08.683Z,84.47
2018-12-21T09:39:36.100Z,69.97
2018-12-21T09:42:03.505Z,91.93
2018-12-21T09:44:30.947Z,104.63
2018-12-21T09:46:58.363Z,109.20
2018-12-21T09:49:25.784Z,86.07
2018-12-21T09:51:53.231Z,82.77
2018-12-21T09:54:20.761Z,96.13
2018-12-21T09:56:48.172Z,101.20
2018-12-21T09:59:15.576Z,88.43
2018-12-21T10:01:43.008Z,92.70
2018-12-21T10:04:10.420Z,81.83
2018-12-21T10:06:37.836Z,69.97
2018-12-21T10:09:06.955Z,83.53
2018-12-21T10:11:34.377Z,105.20
2018-12-21T10:14:01.860Z,58.03
2018-12-21T10:16:29.297Z,71.87
2018-12-21T10:18:56.772Z,77.30
2018-12-21T10:21:24.323Z,69.47
2018-12-21T10:23:51.738Z,76.73
2018-12-21T10:26:19.175Z,74.50
2018-12-21T10:28:46.591Z,72.50
2018-12-21T10:31:14.010Z,73.10
2018-12-21T10:33:41.427Z,80.13
2018-12-21T10:36:08.841Z,75.20
2018-12-21T10:38:36.263Z,89.97
2018-12-21T10:41:03.689Z,83.97
2018-12-21T10:43:31.213Z,78.53
2018-12-21T10:45:58.627Z,72.37
2018-12-21T10:48:26.047Z,69.97
2018-12-21T10:50:53.469Z,62.93
2018-12-21T10:53:20.902Z,63.80
2018-12-21T10:55:48.320Z,65.90
2018-12-21T10:58:15.773Z,69.40
2018-12-21T11:00:43.186Z,71.30
2018-12-21T11:03:10.606Z,73.20
2018-12-21T11:05:38.017Z,75.97
2018-12-21T11:08:05.446Z,65.07
2018-12-21T11:10:32.877Z,88.10
2018-12-21T11:13:00.301Z,83.77
2018-12-21T11:15:27.738Z,74.90
2018-12-21T11:17:55.142Z,85.47
2018-12-21T11:20:22.571Z,90.77
2018-12-21T11:22:50.082Z,71.80
2018-12-21T11:25:17.500Z,68.10
2018-12-21T11:27:44.908Z,78.50
2018-12-21T11:30:12.348Z,70.40
2018-12-21T11:32:39.767Z,75.77
2018-12-21T11:35:07.270Z,54.07
2018-12-21T11:37:34.682Z,45.47
2018-12-21T11:40:02.120Z,35.80
2018-12-21T11:42:29.535Z,33.73
2018-12-21T11:44:56.974Z,29.33
2018-12-21T11:47:24.397Z,23.83
2018-12-21T11:49:51.789Z,19.57
2018-12-21T11:52:19.220Z,20.63
2018-12-21T11:54:46.615Z,18.80
2018-12-21T11:57:14.036Z,21.53
2018-12-21T11:59:44.978Z,18.13
2018-12-21T12:02:19.301Z,17.93
2018-12-21T12:04:40.342Z,27.03
2018-12-21T12:07:07.760Z,13.23
2018-12-21T12:09:35.164Z,14.60
2018-12-21T12:12:02.588Z,10.90
2018-12-21T12:14:29.992Z,11.67
2018-12-21T12:16:58.718Z,10.87
2018-12-21T12:19:26.442Z,10.13
2018-12-21T12:21:53.861Z,10.87
2018-12-21T12:24:21.331Z,19.43
2018-12-21T12:26:48.727Z,9.07
2018-12-21T12:29:16.139Z,8.30
2018-12-21T12:31:43.557Z,8.33
2018-12-21T12:34:10.952Z,8.30
2018-12-21T12:36:38.365Z,7.17
2018-12-21T12:39:06.420Z,13.73
2018-12-21T12:41:33.834Z,8.00
2018-12-21T12:44:01.242Z,7.70
2018-12-21T12:46:28.651Z,7.80
2018-12-21T12:48:56.073Z,6.80
2018-12-21T12:51:23.472Z,6.97
2018-12-21T12:53:50.885Z,6.40
2018-12-21T12:56:18.285Z,6.30
2018-12-21T12:58:45.685Z,6.43
2018-12-21T13:01:13.101Z,6.60
2018-12-21T13:03:40.497Z,6.47
2018-12-21T13:06:07.916Z,6.07
2018-12-21T13:08:35.325Z,6.40
2018-12-21T13:11:02.729Z,6.30
2018-12-21T13:13:30.133Z,6.90
2018-12-21T13:15:57.543Z,6.20
2018-12-21T13:18:25.007Z,6.57
2018-12-21T13:20:52.436Z,7.63
2018-12-21T13:23:19.841Z,6.00
2018-12-21T13:25:47.259Z,5.80
2018-12-21T13:28:14.665Z,5.53
2018-12-21T13:30:42.076Z,5.40
2018-12-21T13:33:09.485Z,5.50
2018-12-21T13:35:36.871Z,5.33
2018-12-21T13:38:04.308Z,5.77
2018-12-21T13:40:31.707Z,5.37
2018-12-21T13:42:59.116Z,5.20
2018-12-21T13:45:26.512Z,5.30
2018-12-21T13:47:54.038Z,7.13
2018-12-21T13:50:21.465Z,5.10
2018-12-21T13:52:48.875Z,5.40
2018-12-21T13:55:20.276Z,5.30
2018-12-21T13:57:45.685Z,5.47
2018-12-21T14:00:13.086Z,5.77
2018-12-21T14:02:40.514Z,7.70
2018-12-21T14:05:07.976Z,5.10
2018-12-21T14:07:35.376Z,5.20
2018-12-21T14:10:04.032Z,5.17
2018-12-21T14:12:31.434Z,4.90
2018-12-21T14:14:58.840Z,4.90
2018-12-21T14:17:26.253Z,4.83
2018-12-21T14:19:53.684Z,4.63
2018-12-21T14:22:21.080Z,4.83
2018-12-21T14:24:48.512Z,5.23
2018-12-21T14:27:15.904Z,5.03
2018-12-21T14:29:43.338Z,5.10
2018-12-21T14:32:10.737Z,4.80
2018-12-21T14:34:38.147Z,5.33
2018-12-21T14:37:05.557Z,5.07
2018-12-21T14:39:33.032Z,4.80
2018-12-21T14:42:00.498Z,5.37
2018-12-21T14:44:27.936Z,4.90
2018-12-21T14:46:55.348Z,9.13
2018-12-21T14:49:22.762Z,5.17
2018-12-21T14:51:50.193Z,5.20
2018-12-21T14:54:17.587Z,5.27
2018-12-21T14:56:45.854Z,4.77
2018-12-21T14:59:13.252Z,5.10
2018-12-21T15:01:40.678Z,4.90
2018-12-21T15:04:08.088Z,4.90
2018-12-21T15:06:35.497Z,5.50
2018-12-21T15:09:03.939Z,5.57
2018-12-21T15:11:31.357Z,17.27
2018-12-21T15:13:58.751Z,5.50
2018-12-21T15:16:26.164Z,5.57
2018-12-21T15:18:53.576Z,5.50
2018-12-21T15:21:21.007Z,5.53
2018-12-21T15:23:48.417Z,8.00
2018-12-21T15:26:15.840Z,6.07
2018-12-21T15:28:43.260Z,5.80
2018-12-21T15:31:10.665Z,5.83
2018-12-21T15:33:38.071Z,5.50
2018-12-21T15:36:05.550Z,5.47
2018-12-21T15:38:33.419Z,5.93
2018-12-21T15:41:00.832Z,5.00
2018-12-21T15:46:16.996Z,5.23
2018-12-21T15:48:44.413Z,4.97
2018-12-21T15:51:11.830Z,4.97
2018-12-21T15:53:39.260Z,4.87
2018-12-21T15:56:06.660Z,4.90
2018-12-21T15:58:34.088Z,5.07
2018-12-21T16:01:01.476Z,5.73
2018-12-21T16:03:28.923Z,5.33
2018-12-21T16:05:56.321Z,5.60
2018-12-21T16:08:23.738Z,5.73
2018-12-21T16:10:51.152Z,6.17
2018-12-21T16:13:18.557Z,5.73
2018-12-21T16:15:45.972Z,6.20
2018-12-21T16:18:13.368Z,6.23
2018-12-21T16:20:40.892Z,5.77
2018-12-21T16:23:08.292Z,5.40
2018-12-21T16:25:35.699Z,6.53
2018-12-21T16:28:03.114Z,6.77
2018-12-21T16:30:30.535Z,6.33
2018-12-21T16:32:57.935Z,7.27
2018-12-21T16:35:25.731Z,6.87
2018-12-21T16:37:53.136Z,6.00
2018-12-21T16:40:20.576Z,10.00
2018-12-21T16:42:47.971Z,13.90
2018-12-21T16:45:15.375Z,11.53
2018-12-21T16:47:42.784Z,7.73
2018-12-21T16:50:10.552Z,6.90
2018-12-21T16:52:37.967Z,7.90
2018-12-21T16:55:06.893Z,7.73
2018-12-21T16:57:34.306Z,8.17
2018-12-21T17:00:02.619Z,8.60
2018-12-21T17:02:30.036Z,7.43
2018-12-21T17:04:57.441Z,7.70
2018-12-21T17:07:24.861Z,6.90
2018-12-21T17:09:52.260Z,7.13
2018-12-21T17:12:19.708Z,11.90
2018-12-21T17:14:47.124Z,8.17
2018-12-21T17:17:14.521Z,6.93
2018-12-21T17:19:41.946Z,8.03
2018-12-21T17:22:09.357Z,7.17
2018-12-21T17:24:36.769Z,8.07
2018-12-21T17:27:04.175Z,6.70
2018-12-21T17:29:31.596Z,6.77
2018-12-21T17:31:58.996Z,8.20
2018-12-21T17:34:26.425Z,7.67
2018-12-21T17:36:53.828Z,7.90
2018-12-21T17:39:21.245Z,8.47
2018-12-21T17:41:48.656Z,8.80
2018-12-21T17:44:16.068Z,8.30
2018-12-21T17:46:43.474Z,9.17
2018-12-21T17:49:10.893Z,7.93
2018-12-21T17:51:38.590Z,8.73
2018-12-21T17:54:06.138Z,9.07
2018-12-21T17:56:33.549Z,8.87
2018-12-21T17:59:00.957Z,11.50
2018-12-21T18:01:28.511Z,10.70
2018-12-21T18:03:55.911Z,9.00
2018-12-21T18:06:23.332Z,9.33
2018-12-21T18:08:50.755Z,9.37
2018-12-21T18:11:18.180Z,10.73
2018-12-21T18:13:45.964Z,9.83
2018-12-21T18:16:13.501Z,9.67
2018-12-21T18:18:40.911Z,9.27
2018-12-21T18:21:08.359Z,9.87
2018-12-21T18:23:41.825Z,9.20
2018-12-21T18:26:09.587Z,10.47
2018-12-21T18:28:37.034Z,9.43
2018-12-21T18:31:08.294Z,10.07
2018-12-21T18:33:35.743Z,10.03
2018-12-21T18:36:03.173Z,10.27
2018-12-21T18:38:30.610Z,9.13
2018-12-21T18:40:58.053Z,9.63
2018-12-21T18:43:25.459Z,9.03
2018-12-21T18:45:52.880Z,10.63
2018-12-21T18:48:20.302Z,9.13
2018-12-21T18:50:48.721Z,10.37
2018-12-21T18:53:16.143Z,9.10
2018-12-21T18:55:44.185Z,9.47
2018-12-21T18:58:11.608Z,9.60
2018-12-21T19:00:39.019Z,9.27
2018-12-21T19:03:06.433Z,10.43
2018-12-21T19:05:33.853Z,10.20
2018-12-21T19:08:01.259Z,10.27
2018-12-21T19:10:28.680Z,9.63
2018-12-21T19:12:56.091Z,9.73
2018-12-21T19:15:23.525Z,10.57
2018-12-21T19:17:50.932Z,11.63
2018-12-21T19:20:18.355Z,10.57
2018-12-21T19:22:45.774Z,11.63
2018-12-21T19:25:13.197Z,10.33
2018-12-21T19:27:40.609Z,11.07
2018-12-21T19:30:08.589Z,9.73
2018-12-21T19:32:36.113Z,9.60
2018-12-21T19:35:04.135Z,10.50
2018-12-21T19:37:31.551Z,9.80
2018-12-21T19:39:59.630Z,10.13
2018-12-21T19:42:27.177Z,9.20
2018-12-21T19:44:54.585Z,9.03
2018-12-21T19:47:22.019Z,9.63
2018-12-21T19:49:49.428Z,10.17
2018-12-21T19:52:17.211Z,11.17
2018-12-21T19:54:44.853Z,10.17
2018-12-21T19:57:12.277Z,10.00
2018-12-21T19:59:39.679Z,9.93
2018-12-21T20:02:07.093Z,9.97
2018-12-21T20:04:34.509Z,10.53
2018-12-21T20:07:01.996Z,14.80
2018-12-21T20:09:29.401Z,11.63
2018-12-21T20:11:56.824Z,11.00
2018-12-21T20:14:24.232Z,10.90
2018-12-21T20:16:51.668Z,10.97
2018-12-21T20:19:19.068Z,13.80
2018-12-21T20:21:46.534Z,11.50
2018-12-21T20:24:14.153Z,11.83
2018-12-21T20:26:42.091Z,11.00
2018-12-21T20:29:10.217Z,10.63
2018-12-21T20:31:37.615Z,11.60
2018-12-21T20:34:05.859Z,10.13
2018-12-21T20:36:33.279Z,10.87
2018-12-21T20:39:00.696Z,9.83
2018-12-21T20:41:28.176Z,11.23
2018-12-21T20:43:55.591Z,10.87
2018-12-21T20:46:23.009Z,10.83
2018-12-21T20:48:50.457Z,10.63
2018-12-21T20:51:18.771Z,10.07
2018-12-21T20:53:46.192Z,13.67
2018-12-21T20:56:13.612Z,10.40
2018-12-21T20:58:41.031Z,10.93
2018-12-21T21:01:08.458Z,10.77
2018-12-21T21:03:35.897Z,10.03
2018-12-21T21:06:03.322Z,11.73
2018-12-21T21:08:30.742Z,10.40
2018-12-21T21:10:58.184Z,11.20
2018-12-21T21:13:25.652Z,11.03
2018-12-21T21:15:53.766Z,10.70
2018-12-21T21:18:21.180Z,11.43
2018-12-21T21:20:48.648Z,12.23
2018-12-21T21:23:16.064Z,10.87
2018-12-21T21:25:43.489Z,11.20
2018-12-21T21:28:10.961Z,11.47
2018-12-21T21:30:38.597Z,10.67
2018-12-21T21:33:06.015Z,12.07
2018-12-21T21:35:33.532Z,11.60
2018-12-21T21:38:00.988Z,12.10
2018-12-21T21:40:28.400Z,11.47
2018-12-21T21:42:57.753Z,11.10
2018-12-21T21:45:25.621Z,11.27
2018-12-21T21:47:53.075Z,10.67
2018-12-21T21:50:20.485Z,11.27
2018-12-21T21:52:47.906Z,11.90
2018-12-21T21:55:15.372Z,11.43
2018-12-21T21:57:42.795Z,12.17
2018-12-21T22:00:11.513Z,12.33
2018-12-21T22:02:38.929Z,10.90
2018-12-21T22:05:06.403Z,12.53
2018-12-21T22:07:33.891Z,11.20
2018-12-21T22:10:01.309Z,11.23
2018-12-21T22:12:28.714Z,12.30
2018-12-21T22:14:56.139Z,11.57
2018-12-21T22:17:23.552Z,12.97
2018-12-21T22:19:51.004Z,11.70
2018-12-21T22:22:18.432Z,12.03
2018-12-21T22:24:45.852Z,12.20
2018-12-21T22:27:13.269Z,12.20
2018-12-21T22:29:40.700Z,12.03
2018-12-21T22:32:08.111Z,11.97
2018-12-21T22:34:35.647Z,12.30
2018-12-21T22:37:03.070Z,11.17
2018-12-21T22:39:30.487Z,12.90
2018-12-21T22:41:57.900Z,12.03
2018-12-21T22:44:25.349Z,12.03
2018-12-21T22:46:52.743Z,12.10
2018-12-21T22:49:20.161Z,11.90
2018-12-21T22:51:47.613Z,11.40
2018-12-21T22:54:15.007Z,12.27
2018-12-21T22:56:42.443Z,12.30
2018-12-21T22:59:10.095Z,11.80
2018-12-21T23:01:37.500Z,11.43
2018-12-21T23:04:04.925Z,11.30
2018-12-21T23:06:32.353Z,11.47
2018-12-21T23:08:59.752Z,11.77
2018-12-21T23:11:27.184Z,11.10
2018-12-21T23:13:54.603Z,11.50
2018-12-21T23:16:22.037Z,11.77
2018-12-21T23:18:49.449Z,11.10
2018-12-21T23:21:16.881Z,11.67
2018-12-21T23:23:44.288Z,12.07
2018-12-21T23:26:11.712Z,11.47
2018-12-21T23:28:39.128Z,11.40
2018-12-21T23:31:06.556Z,11.60
2018-12-21T23:33:33.973Z,11.83
2018-12-21T23:36:02.365Z,11.27
2018-12-21T23:38:29.801Z,11.20
2018-12-21T23:40:57.212Z,12.43
2018-12-21T23:43:24.641Z,12.37
2018-12-21T23:45:52.153Z,11.53
2018-12-21T23:48:19.580Z,12.07
2018-12-21T23:50:47.009Z,12.23
2018-12-21T23:53:14.493Z,12.47
2018-12-21T23:55:41.895Z,12.47
2018-12-21T23:58:13.633Z,10.77
